sensor_id;sensor_type;location;lat;lon;timestamp;P1;durP1;ratioP1;P2;durP2;ratioP2
4895;SDS011;2463;49.948;8.472;2023-06-26T00:01:39;93.67;;;7.97;;
4895;SDS011;2463;49.948;8.472;2023-06-26T00:04:06;92.90;;;7.80;;
4895;SDS011;2463;49.948;8.472;2023-06-26T00:06:33;95.90;;;7.97;;
4895;SDS011;2463;49.948;8.472;2023-06-26T00:09:00;93.90;;;7.73;;
4895;SDS011;2463;49.948;8.472;2023-06-26T00:11:27;94.03;;;7.47;;
4895;SDS011;2463;49.948;8.472;2023-06-26T00:13:57;93.10;;;8.17;;
4895;SDS011;2463;49.948;8.472;2023-06-26T00:16:23;94.70;;;7.47;;
4895;SDS011;2463;49.948;8.472;2023-06-26T00:18:50;92.37;;;8.13;;
4895;SDS011;2463;49.948;8.472;2023-06-26T00:21:17;93.30;;;8.40;;
4895;SDS011;2463;49.948;8.472;2023-06-26T00:23:45;95.97;;;8.47;;
4895;SDS011;2463;49.948;8.472;2023-06-26T00:26:12;96.20;;;7.30;;
4895;SDS011;2463;49.948;8.472;2023-06-26T00:28:39;94.67;;;7.87;;
4895;SDS011;2463;49.948;8.472;2023-06-26T00:31:05;97.00;;;8.47;;
4895;SDS011;2463;49.948;8.472;2023-06-26T00:33:32;105.53;;;8.33;;
4895;SDS011;2463;49.948;8.472;2023-06-26T00:35:59;97.43;;;8.40;;
4895;SDS011;2463;49.948;8.472;2023-06-26T00:38:26;94.87;;;8.60;;
4895;SDS011;2463;49.948;8.472;2023-06-26T00:40:52;93.97;;;8.70;;
4895;SDS011;2463;49.948;8.472;2023-06-26T00:43:21;93.37;;;7.83;;
4895;SDS011;2463;49.948;8.472;2023-06-26T00:45:48;94.57;;;8.40;;
4895;SDS011;2463;49.948;8.472;2023-06-26T00:48:15;100.57;;;8.70;;
4895;SDS011;2463;49.948;8.472;2023-06-26T00:50:42;95.30;;;8.80;;
4895;SDS011;2463;49.948;8.472;2023-06-26T00:53:09;96.17;;;8.90;;
4895;SDS011;2463;49.948;8.472;2023-06-26T00:55:37;94.17;;;8.40;;
4895;SDS011;2463;49.948;8.472;2023-06-26T00:58:04;95.70;;;8.60;;
4895;SDS011;2463;49.948;8.472;2023-06-26T01:00:31;97.33;;;9.27;;
4895;SDS011;2463;49.948;8.472;2023-06-26T01:02:58;94.70;;;8.97;;
4895;SDS011;2463;49.948;8.472;2023-06-26T01:05:26;96.33;;;7.50;;
4895;SDS011;2463;49.948;8.472;2023-06-26T01:07:54;94.87;;;8.87;;
4895;SDS011;2463;49.948;8.472;2023-06-26T01:10:23;95.67;;;8.80;;
4895;SDS011;2463;49.948;8.472;2023-06-26T01:12:50;94.97;;;9.07;;
4895;SDS011;2463;49.948;8.472;2023-06-26T01:15:17;95.60;;;8.73;;
4895;SDS011;2463;49.948;8.472;2023-06-26T01:17:44;97.00;;;8.53;;
4895;SDS011;2463;49.948;8.472;2023-06-26T01:20:13;95.10;;;8.23;;
4895;SDS011;2463;49.948;8.472;2023-06-26T01:22:47;97.57;;;8.83;;
4895;SDS011;2463;49.948;8.472;2023-06-26T01:25:35;92.90;;;8.20;;
4895;SDS011;2463;49.948;8.472;2023-06-26T01:28:14;95.97;;;9.27;;
4895;SDS011;2463;49.948;8.472;2023-06-26T01:30:44;95.00;;;9.47;;
4895;SDS011;2463;49.948;8.472;2023-06-26T01:33:12;95.33;;;8.93;;
4895;SDS011;2463;49.948;8.472;2023-06-26T01:35:39;95.40;;;8.90;;
4895;SDS011;2463;49.948;8.472;2023-06-26T01:40:40;93.30;;;8.13;;
4895;SDS011;2463;49.948;8.472;2023-06-26T01:43:08;97.77;;;8.70;;
4895;SDS011;2463;49.948;8.472;2023-06-26T01:45:43;97.90;;;8.20;;
4895;SDS011;2463;49.948;8.472;2023-06-26T01:48:14;97.87;;;9.03;;
4895;SDS011;2463;49.948;8.472;2023-06-26T01:50:45;98.20;;;9.37;;
4895;SDS011;2463;49.948;8.472;2023-06-26T01:53:16;94.93;;;8.90;;
4895;SDS011;2463;49.948;8.472;2023-06-26T01:56:00;95.97;;;9.63;;
4895;SDS011;2463;49.948;8.472;2023-06-26T01:58:34;95.87;;;9.17;;
4895;SDS011;2463;49.948;8.472;2023-06-26T02:01:03;97.90;;;9.13;;
4895;SDS011;2463;49.948;8.472;2023-06-26T02:03:30;99.03;;;8.50;;
4895;SDS011;2463;49.948;8.472;2023-06-26T02:05:57;95.40;;;8.83;;
4895;SDS011;2463;49.948;8.472;2023-06-26T02:08:23;95.28;;;8.90;;
4895;SDS011;2463;49.948;8.472;2023-06-26T02:10:50;96.80;;;9.30;;
4895;SDS011;2463;49.948;8.472;2023-06-26T02:13:17;95.17;;;8.50;;
4895;SDS011;2463;49.948;8.472;2023-06-26T02:15:44;96.40;;;9.07;;
4895;SDS011;2463;49.948;8.472;2023-06-26T02:18:10;95.37;;;8.53;;
4895;SDS011;2463;49.948;8.472;2023-06-26T02:20:37;96.70;;;8.80;;
4895;SDS011;2463;49.948;8.472;2023-06-26T02:23:04;96.40;;;9.30;;
4895;SDS011;2463;49.948;8.472;2023-06-26T02:25:31;94.90;;;9.17;;
4895;SDS011;2463;49.948;8.472;2023-06-26T02:27:57;97.67;;;9.10;;
4895;SDS011;2463;49.948;8.472;2023-06-26T02:30:24;96.50;;;9.90;;
4895;SDS011;2463;49.948;8.472;2023-06-26T02:32:51;97.47;;;9.70;;
4895;SDS011;2463;49.948;8.472;2023-06-26T02:35:17;97.47;;;10.00;;
4895;SDS011;2463;49.948;8.472;2023-06-26T02:37:44;95.82;;;8.95;;
4895;SDS011;2463;49.948;8.472;2023-06-26T02:40:11;95.97;;;9.40;;
4895;SDS011;2463;49.948;8.472;2023-06-26T02:42:38;98.80;;;9.47;;
4895;SDS011;2463;49.948;8.472;2023-06-26T02:45:05;98.63;;;10.50;;
4895;SDS011;2463;49.948;8.472;2023-06-26T02:47:32;94.50;;;8.70;;
4895;SDS011;2463;49.948;8.472;2023-06-26T02:49:59;100.15;;;9.32;;
4895;SDS011;2463;49.948;8.472;2023-06-26T02:52:25;97.43;;;9.60;;
4895;SDS011;2463;49.948;8.472;2023-06-26T02:54:52;97.70;;;9.10;;
4895;SDS011;2463;49.948;8.472;2023-06-26T02:57:19;97.75;;;9.70;;
4895;SDS011;2463;49.948;8.472;2023-06-26T02:59:45;98.57;;;9.43;;
4895;SDS011;2463;49.948;8.472;2023-06-26T03:02:12;98.75;;;10.13;;
4895;SDS011;2463;49.948;8.472;2023-06-26T03:04:39;97.17;;;9.47;;
4895;SDS011;2463;49.948;8.472;2023-06-26T03:07:05;99.30;;;9.60;;
4895;SDS011;2463;49.948;8.472;2023-06-26T03:09:32;98.80;;;9.23;;
4895;SDS011;2463;49.948;8.472;2023-06-26T03:11:59;97.17;;;9.43;;
4895;SDS011;2463;49.948;8.472;2023-06-26T03:14:26;98.37;;;9.83;;
4895;SDS011;2463;49.948;8.472;2023-06-26T03:16:56;97.70;;;10.23;;
4895;SDS011;2463;49.948;8.472;2023-06-26T03:19:24;97.90;;;10.13;;
4895;SDS011;2463;49.948;8.472;2023-06-26T03:21:51;102.90;;;11.90;;
4895;SDS011;2463;49.948;8.472;2023-06-26T03:24:18;101.30;;;10.73;;
4895;SDS011;2463;49.948;8.472;2023-06-26T03:26:44;100.10;;;10.52;;
4895;SDS011;2463;49.948;8.472;2023-06-26T03:29:11;98.07;;;10.40;;
4895;SDS011;2463;49.948;8.472;2023-06-26T03:31:38;97.17;;;9.60;;
4895;SDS011;2463;49.948;8.472;2023-06-26T03:34:04;97.50;;;9.83;;
4895;SDS011;2463;49.948;8.472;2023-06-26T03:36:31;95.80;;;9.60;;
4895;SDS011;2463;49.948;8.472;2023-06-26T03:38:58;97.85;;;9.65;;
4895;SDS011;2463;49.948;8.472;2023-06-26T03:41:24;100.93;;;10.93;;
4895;SDS011;2463;49.948;8.472;2023-06-26T03:43:51;97.00;;;8.63;;
4895;SDS011;2463;49.948;8.472;2023-06-26T03:46:18;97.88;;;10.10;;
4895;SDS011;2463;49.948;8.472;2023-06-26T03:48:44;98.83;;;10.07;;
4895;SDS011;2463;49.948;8.472;2023-06-26T03:51:11;96.57;;;10.20;;
4895;SDS011;2463;49.948;8.472;2023-06-26T03:53:38;96.53;;;10.00;;
4895;SDS011;2463;49.948;8.472;2023-06-26T03:56:05;98.55;;;10.10;;
4895;SDS011;2463;49.948;8.472;2023-06-26T03:58:31;99.47;;;10.40;;
4895;SDS011;2463;49.948;8.472;2023-06-26T04:00:58;97.20;;;10.27;;
4895;SDS011;2463;49.948;8.472;2023-06-26T04:03:25;104.93;;;10.13;;
4895;SDS011;2463;49.948;8.472;2023-06-26T04:05:52;99.27;;;10.70;;
4895;SDS011;2463;49.948;8.472;2023-06-26T04:08:19;99.87;;;11.20;;
4895;SDS011;2463;49.948;8.472;2023-06-26T04:10:46;98.60;;;10.67;;
4895;SDS011;2463;49.948;8.472;2023-06-26T04:13:14;99.40;;;10.30;;
4895;SDS011;2463;49.948;8.472;2023-06-26T04:15:41;98.18;;;10.10;;
4895;SDS011;2463;49.948;8.472;2023-06-26T04:18:07;100.67;;;10.50;;
4895;SDS011;2463;49.948;8.472;2023-06-26T04:20:42;101.15;;;10.57;;
4895;SDS011;2463;49.948;8.472;2023-06-26T04:23:39;99.68;;;10.40;;
4895;SDS011;2463;49.948;8.472;2023-06-26T04:26:07;98.77;;;11.67;;
4895;SDS011;2463;49.948;8.472;2023-06-26T04:28:35;99.30;;;10.37;;
4895;SDS011;2463;49.948;8.472;2023-06-26T04:31:01;98.03;;;9.93;;
4895;SDS011;2463;49.948;8.472;2023-06-26T04:33:31;99.27;;;11.20;;
4895;SDS011;2463;49.948;8.472;2023-06-26T04:35:58;98.07;;;10.23;;
4895;SDS011;2463;49.948;8.472;2023-06-26T04:38:30;96.77;;;10.27;;
4895;SDS011;2463;49.948;8.472;2023-06-26T04:41:00;100.27;;;9.87;;
4895;SDS011;2463;49.948;8.472;2023-06-26T04:43:27;102.07;;;11.03;;
4895;SDS011;2463;49.948;8.472;2023-06-26T04:45:54;101.70;;;10.83;;
4895;SDS011;2463;49.948;8.472;2023-06-26T04:48:22;97.73;;;9.77;;
4895;SDS011;2463;49.948;8.472;2023-06-26T04:50:49;97.30;;;10.83;;
4895;SDS011;2463;49.948;8.472;2023-06-26T04:53:20;101.17;;;11.10;;
4895;SDS011;2463;49.948;8.472;2023-06-26T04:55:49;99.87;;;10.37;;
4895;SDS011;2463;49.948;8.472;2023-06-26T04:58:16;101.00;;;10.80;;
4895;SDS011;2463;49.948;8.472;2023-06-26T05:00:43;99.07;;;11.30;;
4895;SDS011;2463;49.948;8.472;2023-06-26T05:03:11;97.80;;;9.87;;
4895;SDS011;2463;49.948;8.472;2023-06-26T05:05:38;99.30;;;10.47;;
4895;SDS011;2463;49.948;8.472;2023-06-26T05:08:21;100.87;;;10.90;;
4895;SDS011;2463;49.948;8.472;2023-06-26T05:10:49;100.20;;;11.00;;
4895;SDS011;2463;49.948;8.472;2023-06-26T05:13:16;97.97;;;11.23;;
4895;SDS011;2463;49.948;8.472;2023-06-26T05:15:45;99.77;;;11.10;;
4895;SDS011;2463;49.948;8.472;2023-06-26T05:18:12;99.67;;;11.20;;
4895;SDS011;2463;49.948;8.472;2023-06-26T05:20:39;97.57;;;10.67;;
4895;SDS011;2463;49.948;8.472;2023-06-26T05:23:07;98.27;;;10.23;;
4895;SDS011;2463;49.948;8.472;2023-06-26T05:25:33;99.33;;;11.20;;
4895;SDS011;2463;49.948;8.472;2023-06-26T05:28:00;99.40;;;11.10;;
4895;SDS011;2463;49.948;8.472;2023-06-26T05:30:27;96.50;;;9.87;;
4895;SDS011;2463;49.948;8.472;2023-06-26T05:32:54;98.13;;;9.90;;
4895;SDS011;2463;49.948;8.472;2023-06-26T05:35:22;97.53;;;10.17;;
4895;SDS011;2463;49.948;8.472;2023-06-26T05:37:50;99.47;;;9.90;;
4895;SDS011;2463;49.948;8.472;2023-06-26T05:40:17;96.20;;;9.93;;
4895;SDS011;2463;49.948;8.472;2023-06-26T05:42:45;95.73;;;9.40;;
4895;SDS011;2463;49.948;8.472;2023-06-26T05:45:12;96.47;;;9.00;;
4895;SDS011;2463;49.948;8.472;2023-06-26T05:47:39;95.20;;;9.20;;
4895;SDS011;2463;49.948;8.472;2023-06-26T05:50:06;96.77;;;10.37;;
4895;SDS011;2463;49.948;8.472;2023-06-26T05:52:34;99.07;;;10.20;;
4895;SDS011;2463;49.948;8.472;2023-06-26T05:55:02;96.17;;;9.57;;
4895;SDS011;2463;49.948;8.472;2023-06-26T05:57:29;96.70;;;10.17;;
4895;SDS011;2463;49.948;8.472;2023-06-26T05:59:57;96.00;;;9.63;;
4895;SDS011;2463;49.948;8.472;2023-06-26T06:02:24;96.47;;;10.30;;
4895;SDS011;2463;49.948;8.472;2023-06-26T06:04:50;102.37;;;9.37;;
4895;SDS011;2463;49.948;8.472;2023-06-26T06:07:17;96.60;;;10.47;;
4895;SDS011;2463;49.948;8.472;2023-06-26T06:09:44;96.30;;;10.07;;
4895;SDS011;2463;49.948;8.472;2023-06-26T06:12:11;96.97;;;10.47;;
4895;SDS011;2463;49.948;8.472;2023-06-26T06:14:37;92.73;;;8.50;;
4895;SDS011;2463;49.948;8.472;2023-06-26T06:17:04;96.27;;;10.20;;
4895;SDS011;2463;49.948;8.472;2023-06-26T06:19:31;96.80;;;9.87;;
4895;SDS011;2463;49.948;8.472;2023-06-26T06:21:57;97.37;;;9.43;;
4895;SDS011;2463;49.948;8.472;2023-06-26T06:24:24;99.80;;;9.27;;
4895;SDS011;2463;49.948;8.472;2023-06-26T06:26:51;90.87;;;7.87;;
4895;SDS011;2463;49.948;8.472;2023-06-26T06:29:17;93.77;;;9.70;;
4895;SDS011;2463;49.948;8.472;2023-06-26T06:31:45;91.73;;;8.53;;
4895;SDS011;2463;49.948;8.472;2023-06-26T06:34:12;93.20;;;8.50;;
4895;SDS011;2463;49.948;8.472;2023-06-26T06:36:39;93.87;;;8.30;;
4895;SDS011;2463;49.948;8.472;2023-06-26T06:39:07;92.63;;;9.30;;
4895;SDS011;2463;49.948;8.472;2023-06-26T06:41:34;89.33;;;7.53;;
4895;SDS011;2463;49.948;8.472;2023-06-26T06:44:02;89.80;;;9.10;;
4895;SDS011;2463;49.948;8.472;2023-06-26T06:46:30;92.07;;;7.57;;
4895;SDS011;2463;49.948;8.472;2023-06-26T06:48:56;93.57;;;8.20;;
4895;SDS011;2463;49.948;8.472;2023-06-26T06:51:23;86.30;;;7.17;;
4895;SDS011;2463;49.948;8.472;2023-06-26T06:53:50;89.17;;;8.33;;
4895;SDS011;2463;49.948;8.472;2023-06-26T06:56:16;86.33;;;7.70;;
4895;SDS011;2463;49.948;8.472;2023-06-26T06:58:43;84.63;;;6.80;;
4895;SDS011;2463;49.948;8.472;2023-06-26T07:01:12;88.50;;;7.93;;
4895;SDS011;2463;49.948;8.472;2023-06-26T07:03:40;85.17;;;6.83;;
4895;SDS011;2463;49.948;8.472;2023-06-26T07:06:07;86.00;;;8.57;;
4895;SDS011;2463;49.948;8.472;2023-06-26T07:08:34;83.80;;;7.00;;
4895;SDS011;2463;49.948;8.472;2023-06-26T07:11:01;82.97;;;7.17;;
4895;SDS011;2463;49.948;8.472;2023-06-26T07:13:29;82.97;;;7.47;;
4895;SDS011;2463;49.948;8.472;2023-06-26T07:15:55;82.50;;;7.23;;
4895;SDS011;2463;49.948;8.472;2023-06-26T07:18:22;82.17;;;6.63;;
4895;SDS011;2463;49.948;8.472;2023-06-26T07:20:49;85.67;;;6.83;;
4895;SDS011;2463;49.948;8.472;2023-06-26T07:23:16;84.90;;;6.03;;
4895;SDS011;2463;49.948;8.472;2023-06-26T07:25:43;83.40;;;7.10;;
4895;SDS011;2463;49.948;8.472;2023-06-26T07:28:12;84.23;;;7.40;;
4895;SDS011;2463;49.948;8.472;2023-06-26T07:30:39;83.70;;;6.93;;
4895;SDS011;2463;49.948;8.472;2023-06-26T07:33:06;83.80;;;7.00;;
4895;SDS011;2463;49.948;8.472;2023-06-26T07:35:33;90.33;;;7.57;;
4895;SDS011;2463;49.948;8.472;2023-06-26T07:38:00;82.00;;;6.53;;
4895;SDS011;2463;49.948;8.472;2023-06-26T07:40:27;84.50;;;7.33;;
4895;SDS011;2463;49.948;8.472;2023-06-26T07:42:54;84.10;;;7.03;;
4895;SDS011;2463;49.948;8.472;2023-06-26T07:45:20;84.27;;;7.47;;
4895;SDS011;2463;49.948;8.472;2023-06-26T07:47:50;91.87;;;7.27;;
4895;SDS011;2463;49.948;8.472;2023-06-26T07:50:17;83.10;;;7.07;;
4895;SDS011;2463;49.948;8.472;2023-06-26T07:52:48;84.40;;;6.57;;
4895;SDS011;2463;49.948;8.472;2023-06-26T07:55:15;86.40;;;6.50;;
4895;SDS011;2463;49.948;8.472;2023-06-26T07:57:42;83.87;;;6.70;;
4895;SDS011;2463;49.948;8.472;2023-06-26T08:00:09;83.90;;;7.00;;
4895;SDS011;2463;49.948;8.472;2023-06-26T08:02:36;83.10;;;6.70;;
4895;SDS011;2463;49.948;8.472;2023-06-26T08:05:03;83.00;;;6.10;;
4895;SDS011;2463;49.948;8.472;2023-06-26T08:07:30;86.80;;;7.03;;
4895;SDS011;2463;49.948;8.472;2023-06-26T08:09:57;83.30;;;6.60;;
4895;SDS011;2463;49.948;8.472;2023-06-26T08:12:23;83.60;;;6.00;;
4895;SDS011;2463;49.948;8.472;2023-06-26T08:14:50;83.80;;;6.80;;
4895;SDS011;2463;49.948;8.472;2023-06-26T08:17:17;83.53;;;6.43;;
4895;SDS011;2463;49.948;8.472;2023-06-26T08:19:44;85.87;;;7.00;;
4895;SDS011;2463;49.948;8.472;2023-06-26T08:22:10;84.47;;;6.80;;
4895;SDS011;2463;49.948;8.472;2023-06-26T08:24:37;88.43;;;7.23;;
4895;SDS011;2463;49.948;8.472;2023-06-26T08:27:04;84.50;;;6.87;;
4895;SDS011;2463;49.948;8.472;2023-06-26T08:29:32;83.97;;;6.43;;
4895;SDS011;2463;49.948;8.472;2023-06-26T08:31:58;83.43;;;6.10;;
4895;SDS011;2463;49.948;8.472;2023-06-26T08:34:25;82.97;;;6.37;;
4895;SDS011;2463;49.948;8.472;2023-06-26T08:36:52;81.23;;;5.50;;
4895;SDS011;2463;49.948;8.472;2023-06-26T08:39:19;83.73;;;6.30;;
4895;SDS011;2463;49.948;8.472;2023-06-26T08:41:45;80.53;;;5.60;;
4895;SDS011;2463;49.948;8.472;2023-06-26T08:44:12;81.97;;;5.90;;
4895;SDS011;2463;49.948;8.472;2023-06-26T08:46:39;83.80;;;6.67;;
4895;SDS011;2463;49.948;8.472;2023-06-26T08:49:14;82.93;;;6.63;;
4895;SDS011;2463;49.948;8.472;2023-06-26T08:51:46;89.60;;;6.10;;
4895;SDS011;2463;49.948;8.472;2023-06-26T08:54:26;84.00;;;6.20;;
4895;SDS011;2463;49.948;8.472;2023-06-26T08:56:56;82.33;;;6.30;;
4895;SDS011;2463;49.948;8.472;2023-06-26T08:59:25;83.67;;;6.07;;
4895;SDS011;2463;49.948;8.472;2023-06-26T09:01:52;80.77;;;5.50;;
4895;SDS011;2463;49.948;8.472;2023-06-26T09:04:19;82.87;;;5.13;;
4895;SDS011;2463;49.948;8.472;2023-06-26T09:06:45;81.57;;;5.97;;
4895;SDS011;2463;49.948;8.472;2023-06-26T09:09:12;84.07;;;6.27;;
4895;SDS011;2463;49.948;8.472;2023-06-26T09:11:39;83.80;;;5.30;;
4895;SDS011;2463;49.948;8.472;2023-06-26T09:14:06;81.80;;;5.40;;
4895;SDS011;2463;49.948;8.472;2023-06-26T09:16:39;81.50;;;5.07;;
4895;SDS011;2463;49.948;8.472;2023-06-26T09:19:08;81.20;;;6.10;;
4895;SDS011;2463;49.948;8.472;2023-06-26T09:21:38;82.00;;;5.47;;
4895;SDS011;2463;49.948;8.472;2023-06-26T09:24:06;82.17;;;5.30;;
4895;SDS011;2463;49.948;8.472;2023-06-26T09:26:37;86.13;;;5.83;;
4895;SDS011;2463;49.948;8.472;2023-06-26T09:29:05;83.40;;;5.50;;
4895;SDS011;2463;49.948;8.472;2023-06-26T09:31:32;84.03;;;5.80;;
4895;SDS011;2463;49.948;8.472;2023-06-26T09:34:06;79.90;;;5.70;;
4895;SDS011;2463;49.948;8.472;2023-06-26T09:36:33;79.80;;;5.33;;
4895;SDS011;2463;49.948;8.472;2023-06-26T09:39:06;82.90;;;5.30;;
4895;SDS011;2463;49.948;8.472;2023-06-26T09:41:34;81.70;;;5.80;;
4895;SDS011;2463;49.948;8.472;2023-06-26T09:44:02;80.33;;;5.20;;
4895;SDS011;2463;49.948;8.472;2023-06-26T09:46:30;80.63;;;6.00;;
4895;SDS011;2463;49.948;8.472;2023-06-26T09:48:58;81.03;;;5.90;;
4895;SDS011;2463;49.948;8.472;2023-06-26T09:51:36;82.57;;;6.60;;
4895;SDS011;2463;49.948;8.472;2023-06-26T09:54:04;79.47;;;5.03;;
4895;SDS011;2463;49.948;8.472;2023-06-26T09:56:31;80.07;;;5.50;;
4895;SDS011;2463;49.948;8.472;2023-06-26T09:59:01;81.80;;;5.43;;
4895;SDS011;2463;49.948;8.472;2023-06-26T10:01:29;80.07;;;5.30;;
4895;SDS011;2463;49.948;8.472;2023-06-26T10:03:57;79.97;;;5.17;;
4895;SDS011;2463;49.948;8.472;2023-06-26T10:06:28;81.50;;;5.70;;
4895;SDS011;2463;49.948;8.472;2023-06-26T10:09:00;83.00;;;5.40;;
4895;SDS011;2463;49.948;8.472;2023-06-26T10:11:32;83.43;;;5.57;;
4895;SDS011;2463;49.948;8.472;2023-06-26T10:14:09;83.17;;;5.60;;
4895;SDS011;2463;49.948;8.472;2023-06-26T10:16:44;83.00;;;6.07;;
4895;SDS011;2463;49.948;8.472;2023-06-26T10:19:13;82.23;;;5.60;;
4895;SDS011;2463;49.948;8.472;2023-06-26T10:21:41;83.37;;;6.57;;
4895;SDS011;2463;49.948;8.472;2023-06-26T10:24:08;81.77;;;5.23;;
4895;SDS011;2463;49.948;8.472;2023-06-26T10:26:40;82.37;;;6.17;;
4895;SDS011;2463;49.948;8.472;2023-06-26T10:29:10;84.53;;;5.40;;
4895;SDS011;2463;49.948;8.472;2023-06-26T10:31:40;81.97;;;5.90;;
4895;SDS011;2463;49.948;8.472;2023-06-26T10:34:11;82.13;;;6.53;;
4895;SDS011;2463;49.948;8.472;2023-06-26T10:36:39;82.40;;;6.33;;
4895;SDS011;2463;49.948;8.472;2023-06-26T10:39:07;85.17;;;5.97;;
4895;SDS011;2463;49.948;8.472;2023-06-26T10:41:37;82.60;;;5.60;;
4895;SDS011;2463;49.948;8.472;2023-06-26T10:44:22;81.90;;;5.87;;
4895;SDS011;2463;49.948;8.472;2023-06-26T10:46:52;81.00;;;5.53;;
4895;SDS011;2463;49.948;8.472;2023-06-26T10:49:26;81.87;;;5.63;;
4895;SDS011;2463;49.948;8.472;2023-06-26T10:51:55;79.70;;;5.00;;
4895;SDS011;2463;49.948;8.472;2023-06-26T10:54:30;81.30;;;5.67;;
4895;SDS011;2463;49.948;8.472;2023-06-26T10:56:58;81.97;;;5.87;;
4895;SDS011;2463;49.948;8.472;2023-06-26T10:59:25;81.60;;;5.60;;
4895;SDS011;2463;49.948;8.472;2023-06-26T11:02:00;81.17;;;4.93;;
4895;SDS011;2463;49.948;8.472;2023-06-26T11:04:47;80.30;;;5.00;;
4895;SDS011;2463;49.948;8.472;2023-06-26T11:07:21;79.50;;;5.07;;
4895;SDS011;2463;49.948;8.472;2023-06-26T11:10:08;80.33;;;5.80;;
4895;SDS011;2463;49.948;8.472;2023-06-26T11:15:11;79.07;;;4.80;;
4895;SDS011;2463;49.948;8.472;2023-06-26T11:17:42;79.13;;;4.87;;
4895;SDS011;2463;49.948;8.472;2023-06-26T11:20:10;79.70;;;5.00;;
4895;SDS011;2463;49.948;8.472;2023-06-26T11:22:40;81.30;;;5.27;;
4895;SDS011;2463;49.948;8.472;2023-06-26T11:25:07;77.70;;;4.73;;
4895;SDS011;2463;49.948;8.472;2023-06-26T11:27:39;78.97;;;4.90;;
4895;SDS011;2463;49.948;8.472;2023-06-26T11:30:06;78.37;;;5.00;;
4895;SDS011;2463;49.948;8.472;2023-06-26T11:32:38;79.57;;;4.70;;
4895;SDS011;2463;49.948;8.472;2023-06-26T11:35:05;79.40;;;4.73;;
4895;SDS011;2463;49.948;8.472;2023-06-26T11:37:32;79.50;;;4.90;;
4895;SDS011;2463;49.948;8.472;2023-06-26T11:40:15;79.40;;;4.93;;
4895;SDS011;2463;49.948;8.472;2023-06-26T11:42:43;80.23;;;5.30;;
4895;SDS011;2463;49.948;8.472;2023-06-26T11:45:10;80.07;;;5.17;;
4895;SDS011;2463;49.948;8.472;2023-06-26T11:47:38;81.17;;;5.77;;
4895;SDS011;2463;49.948;8.472;2023-06-26T11:50:05;82.97;;;6.10;;
4895;SDS011;2463;49.948;8.472;2023-06-26T11:52:33;81.67;;;6.00;;
4895;SDS011;2463;49.948;8.472;2023-06-26T11:54:59;82.60;;;6.33;;
4895;SDS011;2463;49.948;8.472;2023-06-26T11:57:26;82.13;;;6.73;;
4895;SDS011;2463;49.948;8.472;2023-06-26T11:59:53;85.70;;;7.50;;
4895;SDS011;2463;49.948;8.472;2023-06-26T12:02:20;86.00;;;7.40;;
4895;SDS011;2463;49.948;8.472;2023-06-26T12:04:47;87.10;;;6.90;;
4895;SDS011;2463;49.948;8.472;2023-06-26T12:07:14;82.10;;;6.80;;
4895;SDS011;2463;49.948;8.472;2023-06-26T12:09:42;84.47;;;7.77;;
4895;SDS011;2463;49.948;8.472;2023-06-26T12:12:12;84.27;;;8.03;;
4895;SDS011;2463;49.948;8.472;2023-06-26T12:14:40;83.87;;;8.10;;
4895;SDS011;2463;49.948;8.472;2023-06-26T12:17:11;82.07;;;6.93;;
4895;SDS011;2463;49.948;8.472;2023-06-26T12:19:42;84.00;;;8.20;;
4895;SDS011;2463;49.948;8.472;2023-06-26T12:22:11;82.37;;;7.33;;
4895;SDS011;2463;49.948;8.472;2023-06-26T12:24:38;85.30;;;7.40;;
4895;SDS011;2463;49.948;8.472;2023-06-26T12:27:09;85.37;;;7.60;;
4895;SDS011;2463;49.948;8.472;2023-06-26T12:29:38;82.40;;;6.80;;
4895;SDS011;2463;49.948;8.472;2023-06-26T12:32:10;81.07;;;6.70;;
4895;SDS011;2463;49.948;8.472;2023-06-26T12:34:38;84.70;;;7.07;;
4895;SDS011;2463;49.948;8.472;2023-06-26T12:37:09;81.20;;;6.10;;
4895;SDS011;2463;49.948;8.472;2023-06-26T12:42:21;80.10;;;5.37;;
4895;SDS011;2463;49.948;8.472;2023-06-26T12:44:50;79.77;;;5.03;;
4895;SDS011;2463;49.948;8.472;2023-06-26T12:47:17;79.90;;;5.20;;
4895;SDS011;2463;49.948;8.472;2023-06-26T12:49:49;79.60;;;4.90;;
4895;SDS011;2463;49.948;8.472;2023-06-26T12:52:17;96.30;;;5.87;;
4895;SDS011;2463;49.948;8.472;2023-06-26T12:54:50;79.30;;;4.60;;
4895;SDS011;2463;49.948;8.472;2023-06-26T12:57:18;81.20;;;4.47;;
4895;SDS011;2463;49.948;8.472;2023-06-26T12:59:45;82.00;;;5.23;;
4895;SDS011;2463;49.948;8.472;2023-06-26T13:02:12;78.27;;;4.00;;
4895;SDS011;2463;49.948;8.472;2023-06-26T13:04:39;79.37;;;4.27;;
4895;SDS011;2463;49.948;8.472;2023-06-26T13:07:07;79.37;;;5.10;;
4895;SDS011;2463;49.948;8.472;2023-06-26T13:09:34;80.20;;;4.70;;
4895;SDS011;2463;49.948;8.472;2023-06-26T13:12:03;82.90;;;5.10;;
4895;SDS011;2463;49.948;8.472;2023-06-26T13:14:30;79.80;;;4.90;;
4895;SDS011;2463;49.948;8.472;2023-06-26T13:16:58;79.77;;;5.07;;
4895;SDS011;2463;49.948;8.472;2023-06-26T13:19:26;80.37;;;5.07;;
4895;SDS011;2463;49.948;8.472;2023-06-26T13:21:53;78.67;;;4.70;;
4895;SDS011;2463;49.948;8.472;2023-06-26T13:24:20;79.07;;;5.07;;
4895;SDS011;2463;49.948;8.472;2023-06-26T13:26:47;85.13;;;5.53;;
4895;SDS011;2463;49.948;8.472;2023-06-26T13:29:13;80.10;;;5.30;;
4895;SDS011;2463;49.948;8.472;2023-06-26T13:31:40;81.50;;;5.27;;
4895;SDS011;2463;49.948;8.472;2023-06-26T13:34:07;80.47;;;5.80;;
4895;SDS011;2463;49.948;8.472;2023-06-26T13:36:34;81.10;;;5.17;;
4895;SDS011;2463;49.948;8.472;2023-06-26T13:39:01;85.93;;;5.10;;
4895;SDS011;2463;49.948;8.472;2023-06-26T13:41:28;79.77;;;4.70;;
4895;SDS011;2463;49.948;8.472;2023-06-26T13:43:55;80.97;;;4.70;;
4895;SDS011;2463;49.948;8.472;2023-06-26T13:46:26;84.13;;;5.00;;
4895;SDS011;2463;49.948;8.472;2023-06-26T13:48:54;79.20;;;4.60;;
4895;SDS011;2463;49.948;8.472;2023-06-26T13:51:20;79.97;;;4.53;;
4895;SDS011;2463;49.948;8.472;2023-06-26T13:53:47;83.80;;;5.30;;
4895;SDS011;2463;49.948;8.472;2023-06-26T13:56:14;80.20;;;4.67;;
4895;SDS011;2463;49.948;8.472;2023-06-26T13:58:41;79.67;;;4.40;;
4895;SDS011;2463;49.948;8.472;2023-06-26T14:01:07;79.77;;;4.57;;
4895;SDS011;2463;49.948;8.472;2023-06-26T14:03:34;82.87;;;4.30;;
4895;SDS011;2463;49.948;8.472;2023-06-26T14:06:01;80.50;;;4.43;;
4895;SDS011;2463;49.948;8.472;2023-06-26T14:08:28;79.00;;;4.50;;
4895;SDS011;2463;49.948;8.472;2023-06-26T14:10:55;80.27;;;4.10;;
4895;SDS011;2463;49.948;8.472;2023-06-26T14:13:21;80.37;;;4.30;;
4895;SDS011;2463;49.948;8.472;2023-06-26T14:15:49;81.90;;;4.33;;
4895;SDS011;2463;49.948;8.472;2023-06-26T14:18:19;78.80;;;4.07;;
4895;SDS011;2463;49.948;8.472;2023-06-26T14:20:47;81.47;;;4.37;;
4895;SDS011;2463;49.948;8.472;2023-06-26T14:23:14;81.20;;;4.00;;
4895;SDS011;2463;49.948;8.472;2023-06-26T14:25:41;81.67;;;4.03;;
4895;SDS011;2463;49.948;8.472;2023-06-26T14:28:08;81.13;;;4.20;;
4895;SDS011;2463;49.948;8.472;2023-06-26T14:30:34;80.77;;;4.03;;
4895;SDS011;2463;49.948;8.472;2023-06-26T14:33:01;86.23;;;5.50;;
4895;SDS011;2463;49.948;8.472;2023-06-26T14:35:28;83.13;;;3.70;;
4895;SDS011;2463;49.948;8.472;2023-06-26T14:37:55;84.10;;;4.67;;
4895;SDS011;2463;49.948;8.472;2023-06-26T14:40:22;81.40;;;3.77;;
4895;SDS011;2463;49.948;8.472;2023-06-26T14:42:49;80.30;;;3.80;;
4895;SDS011;2463;49.948;8.472;2023-06-26T14:45:16;81.17;;;3.60;;
4895;SDS011;2463;49.948;8.472;2023-06-26T14:47:43;79.30;;;4.10;;
4895;SDS011;2463;49.948;8.472;2023-06-26T14:50:10;81.50;;;4.00;;
4895;SDS011;2463;49.948;8.472;2023-06-26T14:52:37;80.97;;;3.40;;
4895;SDS011;2463;49.948;8.472;2023-06-26T14:55:04;82.27;;;3.93;;
4895;SDS011;2463;49.948;8.472;2023-06-26T14:57:33;83.10;;;4.00;;
4895;SDS011;2463;49.948;8.472;2023-06-26T15:00:00;83.20;;;3.93;;
4895;SDS011;2463;49.948;8.472;2023-06-26T15:02:27;84.23;;;4.17;;
4895;SDS011;2463;49.948;8.472;2023-06-26T15:04:54;77.63;;;3.30;;
4895;SDS011;2463;49.948;8.472;2023-06-26T15:07:21;80.87;;;3.70;;
4895;SDS011;2463;49.948;8.472;2023-06-26T15:09:48;81.87;;;3.80;;
4895;SDS011;2463;49.948;8.472;2023-06-26T15:12:14;85.80;;;4.07;;